Time;durP1;ratioP1;P1;durP2;ratioP2;P2;SDS_P1;SDS_P2;PMS_P1;PMS_P2;Temp;Humidity;BMP_temperature;BMP_pressure;BME280_temperature;BME280_humidity;BME280_pressure;Samples;Min_cycle;Max_cycle;Signal;HPM_P1;HPM_P2
2022/10/23 00:00:10;;;;;;;29.00;18.40;;;;;;;14.43;69.49;99192.23;226792;1254;139395;-61
2022/10/23 00:05:39;;;;;;;24.00;17.30;;;;;;;14.38;69.63;99198.71;227790;1232;139699;-60
2022/10/23 00:10:42;;;;;;;25.00;18.00;;;;;;;14.35;69.61;99208.73;227730;1234;139669;-60
2022/10/23 00:15:45;;;;;;;28.70;17.90;;;;;;;14.37;69.97;99212.64;226742;1238;139785;-60
2022/10/23 00:20:49;;;;;;;28.60;19.10;;;;;;;14.39;70.00;99222.65;226915;1238;139061;-60
2022/10/23 00:25:52;;;;;;;26.10;17.80;;;;;;;14.43;69.95;99232.23;227714;1227;139116;-61
2022/10/23 00:30:55;;;;;;;24.00;16.50;;;;;;;14.48;69.86;99242.05;226994;1241;140367;-61
2022/10/23 00:35:58;;;;;;;24.80;18.00;;;;;;;14.53;69.80;99250.98;227767;1234;139543;-60
2022/10/23 00:41:02;;;;;;;23.50;16.60;;;;;;;14.57;69.87;99254.41;227712;1232;139647;-62
2022/10/23 00:46:05;;;;;;;27.50;17.40;;;;;;;14.58;69.85;99258.23;226982;1241;138922;-60
2022/10/23 00:51:08;;;;;;;21.70;16.50;;;;;;;14.59;69.78;99262.17;226870;1255;139212;-60
2022/10/23 00:56:12;;;;;;;22.20;15.60;;;;;;;14.65;69.67;99269.88;227643;1234;139667;-60
2022/10/23 01:01:20;;;;;;;22.80;15.10;;;;;;;14.71;69.57;99275.12;227722;1228;139904;-60
2022/10/23 01:06:44;;;;;;;24.70;16.80;;;;;;;14.79;69.63;99267.05;226985;1244;139157;-61
2022/10/23 01:11:55;;;;;;;25.40;17.00;;;;;;;14.85;69.63;99261.24;227824;1246;139922;-62
2022/10/23 01:17:10;;;;;;;21.70;16.50;;;;;;;14.87;69.37;99273.92;226763;1241;139084;-60
2022/10/23 01:22:35;;;;;;;23.00;15.40;;;;;;;14.88;69.30;99273.16;227592;1232;139265;-61
2022/10/23 01:27:45;;;;;;;20.40;15.10;;;;;;;14.91;69.10;99265.96;226939;1234;139857;-62
2022/10/23 01:33:16;;;;;;;23.00;15.80;;;;;;;14.95;69.03;99274.05;226943;1240;139570;-59
2022/10/23 01:38:47;;;;;;;21.40;15.60;;;;;;;15.00;69.14;99281.92;226601;1237;140156;-61
2022/10/23 01:44:08;;;;;;;20.60;15.30;;;;;;;15.01;68.99;99269.85;226855;1254;139182;-65
2022/10/23 01:49:12;;;;;;;21.40;14.90;;;;;;;14.98;68.84;99264.34;227000;1241;139139;-59
2022/10/23 01:54:19;;;;;;;19.70;14.60;;;;;;;14.99;68.75;99280.38;227756;1239;140783;-59
2022/10/23 01:59:28;;;;;;;21.90;16.10;;;;;;;15.00;68.76;99278.68;226814;1241;142574;-60
2022/10/23 02:04:38;;;;;;;22.70;16.40;;;;;;;14.99;68.64;99285.00;226774;1239;139543;-60
2022/10/23 02:09:41;;;;;;;22.30;16.00;;;;;;;14.97;68.53;99298.73;227670;1246;140222;-60
2022/10/23 02:14:55;;;;;;;24.60;16.40;;;;;;;14.92;68.36;99297.48;226926;1241;139522;-59
2022/10/23 02:20:22;;;;;;;22.20;15.80;;;;;;;14.92;68.44;99296.06;227688;1240;141363;-61
2022/10/23 02:25:35;;;;;;;22.80;15.30;;;;;;;14.91;68.26;99310.40;226806;1238;139516;-60
2022/10/23 02:30:41;;;;;;;20.90;16.30;;;;;;;14.89;68.32;99311.48;226903;1240;163377;-62
2022/10/23 02:35:47;;;;;;;26.90;16.60;;;;;;;14.85;68.18;99311.39;226970;1242;140799;-60
2022/10/23 02:41:10;;;;;;;24.00;16.70;;;;;;;14.78;67.96;99314.60;226791;1240;139294;-59
2022/10/23 02:46:24;;;;;;;21.50;16.40;;;;;;;14.67;68.17;99309.04;226444;1239;139176;-61
2022/10/23 02:51:48;;;;;;;22.80;16.40;;;;;;;14.64;68.17;99313.50;226976;1237;139815;-60
2022/10/23 02:57:11;;;;;;;21.70;15.60;;;;;;;14.67;68.32;99316.84;226816;1244;140144;-60
2022/10/23 03:02:17;;;;;;;21.90;16.70;;;;;;;14.73;68.54;99318.07;226579;1233;139673;-63
2022/10/23 03:07:21;;;;;;;22.70;16.60;;;;;;;14.76;68.45;99321.37;226880;1241;141376;-62
2022/10/23 03:12:24;;;;;;;22.20;15.80;;;;;;;14.78;68.17;99324.11;227001;1241;139546;-62
2022/10/23 03:17:27;;;;;;;22.20;16.90;;;;;;;14.78;68.19;99333.60;227693;1241;140235;-63
2022/10/23 03:22:35;;;;;;;19.90;16.00;;;;;;;14.76;68.10;99346.73;226537;1244;139555;-60
2022/10/23 03:27:38;;;;;;;23.60;17.60;;;;;;;14.76;68.24;99340.36;226546;1239;139091;-59
2022/10/23 03:32:43;;;;;;;23.20;17.00;;;;;;;14.78;68.23;99341.25;227707;1234;140525;-61
2022/10/23 03:37:46;;;;;;;20.90;16.50;;;;;;;14.80;68.26;99336.65;227649;1234;138943;-60
2022/10/23 03:42:50;;;;;;;22.80;17.00;;;;;;;14.77;68.10;99335.23;226844;1241;140235;-61
2022/10/23 03:47:53;;;;;;;19.90;15.70;;;;;;;14.75;67.80;99338.47;227020;1238;139948;-59
2022/10/23 03:52:56;;;;;;;25.60;17.80;;;;;;;14.69;67.74;99345.69;226955;1248;139529;-60
2022/10/23 03:57:59;;;;;;;25.30;18.20;;;;;;;14.66;68.09;99344.59;226831;1240;139586;-59
2022/10/23 04:03:03;;;;;;;23.60;18.20;;;;;;;14.63;68.09;99346.79;226930;1242;139096;-59
2022/10/23 04:08:06;;;;;;;26.60;17.60;;;;;;;14.60;67.95;99355.42;226919;1235;139209;-58
2022/10/23 04:13:08;;;;;;;25.60;19.10;;;;;;;14.51;67.92;99351.84;227714;1242;139090;-60
2022/10/23 04:18:11;;;;;;;25.20;19.00;;;;;;;14.49;68.01;99347.52;227772;1234;140017;-59
2022/10/23 04:23:15;;;;;;;28.80;19.20;;;;;;;14.49;68.01;99344.64;226656;1240;139635;-59
2022/10/23 04:28:20;;;;;;;29.30;20.20;;;;;;;14.40;67.88;99346.31;227510;1227;139400;-60
2022/10/23 04:33:24;;;;;;;26.10;18.90;;;;;;;14.38;68.06;99345.96;226969;1241;139357;-60
2022/10/23 04:38:27;;;;;;;27.30;19.40;;;;;;;14.37;68.04;99342.98;226841;1238;139187;-60
2022/10/23 04:43:30;;;;;;;25.50;19.00;;;;;;;14.31;67.96;99349.11;227557;1234;139482;-61
2022/10/23 04:48:34;;;;;;;23.10;17.70;;;;;;;14.29;67.82;99347.29;227700;1241;140403;-62
2022/10/23 04:53:59;;;;;;;26.00;18.50;;;;;;;14.30;67.96;99342.42;227090;1241;139489;-61
2022/10/23 04:59:21;;;;;;;24.90;17.60;;;;;;;14.28;68.03;99339.02;227654;1234;139049;-60
2022/10/23 05:04:24;;;;;;;23.60;17.80;;;;;;;14.24;67.91;99340.05;227668;1227;139469;-61
2022/10/23 05:09:45;;;;;;;24.70;18.00;;;;;;;14.18;67.92;99331.84;226836;1237;138979;-62
2022/10/23 05:14:57;;;;;;;21.90;16.00;;;;;;;14.12;67.99;99335.18;226877;1241;139596;-61
2022/10/23 05:20:05;;;;;;;22.00;15.40;;;;;;;14.11;67.95;99343.40;226860;1241;140797;-63
2022/10/23 05:25:09;;;;;;;20.00;15.20;;;;;;;14.14;68.11;99345.89;226887;1238;139369;-62
2022/10/23 05:30:14;;;;;;;19.40;14.90;;;;;;;14.13;67.96;99337.02;226965;1249;138901;-63
2022/10/23 05:35:21;;;;;;;21.40;15.30;;;;;;;14.13;68.18;99337.59;227730;1226;139952;-62
2022/10/23 05:40:25;;;;;;;18.70;14.10;;;;;;;14.11;68.10;99337.73;226865;1241;139747;-62
2022/10/23 05:45:36;;;;;;;18.90;14.00;;;;;;;14.17;68.20;99340.71;227497;1241;139927;-61
2022/10/23 05:51:04;;;;;;;17.90;14.10;;;;;;;14.23;68.19;99336.13;226678;1241;140084;-60
2022/10/23 05:56:40;;;;;;;18.90;14.60;;;;;;;14.27;68.23;99341.06;226170;1247;139663;-61
2022/10/23 06:02:13;;;;;;;27.60;21.30;;;;;;;14.30;68.35;99342.60;227552;1241;139286;-60
2022/10/23 06:07:39;;;;;;;;;;;;;;;14.33;68.28;99346.30;226935;1240;139084;-66
2022/10/23 06:12:42;;;;;;;18.10;13.60;;;;;;;14.40;68.16;99345.98;226889;1241;125535;-63
2022/10/23 06:17:48;;;;;;;20.40;14.30;;;;;;;14.46;68.11;99350.56;226515;1233;139286;-65
2022/10/23 06:22:52;;;;;;;43.00;30.10;;;;;;;14.51;68.26;99356.05;227586;1233;139212;-67
2022/10/23 06:28:18;;;;;;;;;;;;;;;14.77;69.14;99358.08;227624;1234;139393;-66
2022/10/23 06:33:23;;;;;;;21.80;14.60;;;;;;;14.84;68.09;99362.77;226934;1248;125410;-65
2022/10/23 06:38:27;;;;;;;21.10;15.10;;;;;;;14.80;67.81;99368.45;227635;1234;140138;-64
2022/10/23 06:43:30;;;;;;;19.80;14.60;;;;;;;14.79;67.59;99373.70;226595;1241;139773;-60
2022/10/23 06:48:53;;;;;;;23.10;14.70;;;;;;;14.80;67.74;99382.38;226437;1249;139104;-60
2022/10/23 06:54:01;;;;;;;50.90;36.30;;;;;;;14.84;67.72;99387.40;227663;1229;140052;-63
2022/10/23 06:59:22;;;;;;;19.30;15.00;;;;;;;14.93;68.07;99390.02;226867;1240;138859;-63
2022/10/23 07:04:27;;;;;;;24.20;18.60;;;;;;;14.99;67.80;99390.28;226874;1241;139137;-63
2022/10/23 07:09:30;;;;;;;18.00;13.70;;;;;;;15.00;67.65;99394.45;226915;1241;140255;-65
2022/10/23 07:14:51;;;;;;;53.70;38.50;;;;;;;15.05;67.40;99404.41;226908;1240;139957;-61
2022/10/23 07:19:56;;;;;;;17.30;13.50;;;;;;;15.13;67.59;99400.80;226736;1244;139539;-61
2022/10/23 07:24:59;;;;;;;18.10;13.20;;;;;;;15.25;67.83;99404.73;226697;1241;140062;-62
2022/10/23 07:30:10;;;;;;;59.60;40.80;;;;;;;15.36;67.74;99408.17;226971;1233;141271;-64
2022/10/23 07:35:19;;;;;;;15.70;13.20;;;;;;;15.43;67.62;99407.48;226568;1241;138868;-61
2022/10/23 07:40:30;;;;;;;17.30;12.50;;;;;;;15.48;67.59;99402.80;226605;1241;139989;-61
2022/10/23 07:45:33;;;;;;;15.00;11.80;;;;;;;15.55;67.53;99406.19;226769;1235;139359;-62
2022/10/23 07:50:42;;;;;;;19.60;12.00;;;;;;;15.62;67.46;99415.48;227625;1241;139760;-60
2022/10/23 07:55:56;;;;;;;15.50;12.20;;;;;;;15.72;67.35;99422.14;226917;1237;139169;-60
2022/10/23 08:01:01;;;;;;;14.60;11.00;;;;;;;15.79;67.45;99423.31;226942;1241;139481;-62
2022/10/23 08:06:06;;;;;;;17.30;13.20;;;;;;;15.83;67.16;99434.98;226847;1247;139580;-62
2022/10/23 08:11:12;;;;;;;15.40;11.90;;;;;;;15.84;67.08;99436.69;226985;1233;139144;-62
2022/10/23 08:16:22;;;;;;;16.40;10.90;;;;;;;15.84;66.76;99427.98;226894;1248;139602;-61
2022/10/23 08:21:40;;;;;;;15.90;10.50;;;;;;;15.92;66.95;99416.09;226706;1236;140248;-61
2022/10/23 08:26:48;;;;;;;14.40;10.80;;;;;;;16.04;66.98;99416.22;227519;1226;139940;-63
2022/10/23 08:31:55;;;;;;;14.30;10.80;;;;;;;16.15;67.19;99415.19;227569;1233;138878;-61
2022/10/23 08:37:24;;;;;;;11.20;9.80;;;;;;;16.21;66.85;99409.46;227688;1234;139070;-61
2022/10/23 08:42:27;;;;;;;16.30;9.90;;;;;;;16.22;66.63;99406.91;226914;1240;139474;-62
2022/10/23 08:47:45;;;;;;;33.60;25.60;;;;;;;16.26;66.64;99411.25;226784;1240;139484;-64
2022/10/23 08:53:06;;;;;;;13.70;9.30;;;;;;;16.32;66.63;99411.86;226687;1241;139617;-60
2022/10/23 08:58:18;;;;;;;12.70;9.40;;;;;;;16.39;66.30;99407.20;226977;1237;139258;-64
2022/10/23 09:03:21;;;;;;;10.90;9.60;;;;;;;16.49;66.48;99411.71;226955;1238;139124;-61
2022/10/23 09:08:51;;;;;;;13.90;8.80;;;;;;;16.57;66.43;99416.95;226603;1248;139063;-63
2022/10/23 09:14:23;;;;;;;14.20;9.80;;;;;;;16.71;66.44;99423.25;227644;1233;139414;-62
2022/10/23 09:19:28;;;;;;;16.40;8.70;;;;;;;16.90;66.44;99417.61;226905;1240;139368;-65
2022/10/23 09:24:32;;;;;;;10.80;8.40;;;;;;;17.10;66.46;99417.52;226875;1230;139348;-62
2022/10/23 09:29:35;;;;;;;10.70;7.20;;;;;;;17.20;65.60;99417.55;227788;1226;139835;-63
2022/10/23 09:34:53;;;;;;;13.00;8.30;;;;;;;17.30;65.72;99421.08;226651;1236;140145;-62
2022/10/23 09:40:29;;;;;;;25.70;19.90;;;;;;;17.39;65.37;99429.42;227742;1233;139091;-63
2022/10/23 09:45:34;;;;;;;11.50;8.50;;;;;;;17.46;64.99;99421.84;226388;1243;139550;-63
2022/10/23 09:50:57;;;;;;;9.60;6.80;;;;;;;17.49;64.79;99415.17;226635;1241;138805;-65
2022/10/23 09:56:04;;;;;;;11.40;7.50;;;;;;;17.50;64.36;99405.02;227585;1241;138758;-62
2022/10/23 10:01:21;;;;;;;10.70;6.30;;;;;;;17.48;64.09;99399.41;226881;1241;139850;-64
2022/10/23 10:06:31;;;;;;;9.30;6.30;;;;;;;17.49;64.23;99385.69;226555;1240;138907;-62
2022/10/23 10:11:42;;;;;;;10.60;5.90;;;;;;;17.62;64.18;99380.48;227526;1241;139732;-61
2022/10/23 10:16:57;;;;;;;7.80;5.30;;;;;;;17.82;64.11;99380.56;226621;1248;138719;-63
2022/10/23 10:22:25;;;;;;;10.20;6.00;;;;;;;18.00;63.75;99381.92;227710;1234;139669;-62
2022/10/23 10:27:59;;;;;;;64.40;49.10;;;;;;;18.04;63.23;99386.94;226527;1241;139425;-62
2022/10/23 10:33:15;;;;;;;14.00;6.70;;;;;;;18.09;62.92;99381.46;226338;1243;139360;-63
2022/10/23 10:38:28;;;;;;;8.40;5.10;;;;;;;18.16;62.68;99373.64;227729;1238;139334;-60
2022/10/23 10:43:50;;;;;;;8.70;4.60;;;;;;;18.20;62.36;99373.98;227658;1234;138649;-62
2022/10/23 10:49:33;;;;;;;9.90;6.50;;;;;;;18.24;62.16;99362.41;227625;1233;138936;-63
2022/10/23 10:54:52;;;;;;;11.70;6.70;;;;;;;18.33;62.28;99355.23;226469;1243;139062;-61
2022/10/23 11:00:00;;;;;;;7.10;4.80;;;;;;;18.41;62.15;99353.67;227834;1226;138803;-63
2022/10/23 11:05:13;;;;;;;9.60;5.40;;;;;;;18.44;61.68;99349.05;227617;1234;139228;-60
2022/10/23 11:10:17;;;;;;;7.90;4.80;;;;;;;18.47;61.60;99341.66;226844;1234;138782;-60
2022/10/23 11:15:38;;;;;;;6.30;5.70;;;;;;;18.53;61.36;99333.70;226782;1246;139154;-61
2022/10/23 11:21:18;;;;;;;8.40;5.10;;;;;;;18.60;61.24;99322.52;227522;1233;139354;-62
2022/10/23 11:26:27;;;;;;;7.90;5.10;;;;;;;18.69;61.11;99313.95;226321;1234;139818;-66
2022/10/23 11:31:53;;;;;;;8.50;5.10;;;;;;;18.78;61.03;99312.03;227599;1234;138549;-62
2022/10/23 11:36:58;;;;;;;;;;;;;;;18.88;60.75;99304.09;226873;1233;139086;-60
2022/10/23 11:42:14;;;;;;;10.30;4.80;;;;;;;18.94;60.36;99301.99;227835;1235;125263;-63
2022/10/23 11:47:37;;;;;;;5.80;3.90;;;;;;;18.98;60.17;99297.28;226928;1248;138782;-61
2022/10/23 11:53:21;;;;;;;6.30;3.60;;;;;;;19.07;59.81;99293.52;227642;1233;138858;-65
2022/10/23 11:58:30;;;;;;;56.00;41.80;;;;;;;19.17;59.31;99287.24;226834;1242;139165;-62
2022/10/23 12:03:51;;;;;;;6.00;3.80;;;;;;;19.23;58.81;99279.67;227699;1234;139277;-62
2022/10/23 12:09:00;;;;;;;6.10;3.50;;;;;;;19.27;58.48;99272.83;226888;1235;139083;-60
2022/10/23 12:14:04;;;;;;;4.60;3.30;;;;;;;19.27;58.16;99265.64;227377;1240;139883;-62
2022/10/23 12:19:22;;;;;;;4.80;3.20;;;;;;;19.29;58.19;99265.41;226321;1242;138800;-64
2022/10/23 12:24:48;;;;;;;5.40;3.30;;;;;;;19.35;58.12;99255.08;227565;1237;139382;-62
2022/10/23 12:30:17;;;;;;;4.30;3.30;;;;;;;19.41;57.76;99243.05;227426;1234;139102;-62
2022/10/23 12:35:46;;;;;;;6.30;3.00;;;;;;;19.41;57.49;99229.39;227425;1234;139247;-61
2022/10/23 12:40:52;;;;;;;7.30;3.20;;;;;;;19.38;57.24;99219.89;227266;1241;138520;-65
2022/10/23 12:46:02;;;;;;;6.00;3.60;;;;;;;19.35;57.04;99213.95;226656;1243;139331;-63
2022/10/23 12:51:06;;;;;;;109.90;92.70;;;;;;;19.32;57.01;99214.02;227336;1234;139126;-67
2022/10/23 12:56:12;;;;;;;11.10;7.60;;;;;;;19.37;57.22;99212.23;226266;1241;139810;-65
2022/10/23 13:01:25;;;;;;;8.10;4.10;;;;;;;19.49;57.19;99217.62;226567;1241;139336;-67
2022/10/23 13:06:28;;;;;;;6.80;4.10;;;;;;;19.57;56.97;99221.32;226555;1241;138747;-66
2022/10/23 13:11:32;;;;;;;6.20;3.20;;;;;;;19.61;56.56;99226.13;226309;1249;139118;-64
2022/10/23 13:16:37;;;;;;;6.30;3.70;;;;;;;19.65;56.36;99219.33;226180;1243;138894;-65
2022/10/23 13:21:45;;;;;;;105.20;72.70;;;;;;;19.66;56.04;99210.63;227274;1234;138513;-63
2022/10/23 13:26:48;;;;;;;14.90;11.00;;;;;;;19.66;56.22;99204.66;226473;1240;138988;-63
2022/10/23 13:31:51;;;;;;;12.70;4.40;;;;;;;19.67;56.29;99196.45;226124;1244;139236;-63
2022/10/23 13:36:58;;;;;;;6.80;4.00;;;;;;;19.66;56.14;99194.60;226070;1247;139314;-64
2022/10/23 13:42:13;;;;;;;6.70;4.80;;;;;;;19.62;55.74;99188.84;226254;1248;139076;-62
2022/10/23 13:47:17;;;;;;;6.30;4.50;;;;;;;19.58;55.85;99194.94;226435;1238;138379;-63
2022/10/23 13:52:22;;;;;;;8.20;4.10;;;;;;;19.57;55.68;99199.23;227332;1240;139949;-67
2022/10/23 13:57:25;;;;;;;8.30;4.60;;;;;;;19.53;55.71;99206.05;227156;1239;139028;-68
2022/10/23 14:02:28;;;;;;;6.40;4.30;;;;;;;19.49;55.70;99204.10;226048;1242;139618;-69
2022/10/23 14:07:32;;;;;;;4.90;3.90;;;;;;;19.47;55.74;99207.92;226188;1251;139348;-62
2022/10/23 14:12:42;;;;;;;108.20;82.60;;;;;;;19.49;55.69;99205.41;226343;1239;139725;-71
2022/10/23 14:17:46;;;;;;;11.40;7.30;;;;;;;19.50;55.68;99193.81;226396;1244;140427;-69
2022/10/23 14:22:49;;;;;;;7.80;4.50;;;;;;;19.50;55.52;99189.98;226117;1248;139309;-70
2022/10/23 14:27:52;;;;;;;8.20;4.70;;;;;;;19.48;55.53;99188.90;226155;1243;139070;-64
2022/10/23 14:33:00;;;;;;;5.60;4.80;;;;;;;19.44;55.48;99192.78;227394;1235;139701;-62
2022/10/23 14:38:03;;;;;;;12.10;4.80;;;;;;;19.35;55.65;99190.48;227440;1233;141992;-63
2022/10/23 14:43:06;;;;;;;10.20;5.50;;;;;;;19.26;55.76;99191.90;226215;1249;138920;-66
2022/10/23 14:48:09;;;;;;;8.40;4.10;;;;;;;19.22;55.81;99187.14;226303;1241;139279;-62
2022/10/23 14:53:13;;;;;;;9.10;6.50;;;;;;;19.20;55.64;99187.35;227324;1234;139950;-68
2022/10/23 14:58:16;;;;;;;5.90;4.30;;;;;;;19.14;55.52;99185.70;226292;1240;139423;-63
2022/10/23 15:03:19;;;;;;;7.40;4.30;;;;;;;19.07;55.39;99181.20;226373;1240;139014;-67
2022/10/23 15:08:22;;;;;;;7.40;4.10;;;;;;;18.99;55.30;99184.84;226396;1241;141793;-63
2022/10/23 15:13:25;;;;;;;5.90;3.60;;;;;;;18.94;55.41;99187.60;226169;1241;138501;-63
2022/10/23 15:18:28;;;;;;;6.30;3.80;;;;;;;18.87;55.41;99184.30;226466;1241;139283;-66
2022/10/23 15:23:33;;;;;;;6.90;4.40;;;;;;;18.77;55.45;99187.01;226193;1244;138653;-66
2022/10/23 15:28:36;;;;;;;5.40;4.10;;;;;;;18.68;55.57;99190.17;226235;1235;138948;-66
2022/10/23 15:33:39;;;;;;;8.80;5.00;;;;;;;18.50;55.66;99191.02;226164;1241;139227;-68
2022/10/23 15:38:42;;;;;;;11.30;5.30;;;;;;;18.25;55.89;99192.06;226295;1244;138953;-70
2022/10/23 15:43:45;;;;;;;66.20;55.60;;;;;;;18.03;56.27;99191.67;227236;1247;139582;-66
2022/10/23 15:48:49;;;;;;;11.80;7.40;;;;;;;18.00;57.85;99192.20;226396;1241;139613;-72
2022/10/23 15:53:52;;;;;;;9.70;5.30;;;;;;;17.87;57.33;99189.02;226284;1252;138870;-65
2022/10/23 15:58:55;;;;;;;9.60;5.30;;;;;;;17.67;57.31;99186.28;226254;1242;139142;-64
2022/10/23 16:03:58;;;;;;;14.80;5.50;;;;;;;17.45;57.42;99191.83;226182;1242;139483;-66
2022/10/23 16:09:02;;;;;;;12.70;5.90;;;;;;;17.20;57.63;99192.91;227247;1233;139183;-66
2022/10/23 16:14:06;;;;;;;10.40;6.60;;;;;;;17.03;57.94;99191.55;226285;1238;140959;-68
2022/10/23 16:19:10;;;;;;;7.30;5.00;;;;;;;16.93;58.16;99194.66;226457;1240;139863;-63
2022/10/23 16:24:13;;;;;;;9.40;5.60;;;;;;;16.86;58.56;99205.14;227438;1248;140481;-67
2022/10/23 16:29:16;;;;;;;10.60;5.40;;;;;;;16.74;58.82;99200.05;226343;1241;139014;-65
2022/10/23 16:34:19;;;;;;;7.80;5.40;;;;;;;16.65;58.95;99206.72;227391;1246;140015;-65
2022/10/23 16:39:22;;;;;;;10.10;5.70;;;;;;;16.54;59.19;99213.86;226511;1241;139615;-64
2022/10/23 16:44:44;;;;;;;9.70;7.70;;;;;;;16.42;59.42;99219.93;226243;1235;139701;-69
2022/10/23 16:49:47;;;;;;;17.50;10.70;;;;;;;16.38;59.91;99228.89;227275;1234;139259;-66
2022/10/23 16:54:50;;;;;;;10.20;6.30;;;;;;;16.39;60.03;99234.70;226259;1252;140211;-70
2022/10/23 16:59:55;;;;;;;12.10;6.80;;;;;;;16.25;59.91;99239.46;226494;1238;139204;-67
2022/10/23 17:04:58;;;;;;;14.50;6.60;;;;;;;16.07;59.96;99243.41;226387;1238;139680;-66
2022/10/23 17:10:01;;;;;;;10.80;6.80;;;;;;;16.00;60.18;99243.11;226013;1240;140151;-68
2022/10/23 17:15:05;;;;;;;13.60;6.60;;;;;;;15.96;60.51;99246.27;226312;1247;140471;-64
2022/10/23 17:20:08;;;;;;;9.10;6.90;;;;;;;15.94;60.76;99249.00;226318;1243;139887;-68
2022/10/23 17:25:11;;;;;;;11.50;6.80;;;;;;;15.87;60.87;99252.89;226247;1242;139209;-65
2022/10/23 17:30:14;;;;;;;15.80;8.50;;;;;;;15.80;61.00;99246.33;226607;1246;139050;-62
2022/10/23 17:35:17;;;;;;;12.50;7.80;;;;;;;15.71;60.93;99249.55;226370;1241;140174;-62
2022/10/23 17:40:20;;;;;;;16.90;8.20;;;;;;;15.60;61.01;99251.48;226294;1240;139334;-70
2022/10/23 17:45:27;;;;;;;12.60;7.70;;;;;;;15.49;61.17;99250.02;227192;1242;140197;-71
2022/10/23 17:50:30;;;;;;;15.20;8.10;;;;;;;15.37;61.34;99244.34;226454;1253;139075;-67
2022/10/23 17:55:40;;;;;;;71.90;51.00;;;;;;;15.32;61.56;99237.38;226321;1241;138982;-65
2022/10/23 18:00:43;;;;;;;14.30;8.90;;;;;;;15.40;62.03;99234.66;227396;1246;139915;-63
2022/10/23 18:05:46;;;;;;;14.70;8.20;;;;;;;15.39;61.95;99232.23;226435;1237;138615;-64
2022/10/23 18:10:49;;;;;;;31.40;22.10;;;;;;;15.32;61.96;99233.24;227416;1233;139686;-64
2022/10/23 18:15:52;;;;;;;11.50;7.40;;;;;;;15.28;62.07;99228.41;226463;1241;139821;-66
2022/10/23 18:21:00;;;;;;;15.00;8.30;;;;;;;15.19;61.99;99224.16;227306;1240;139740;-63
2022/10/23 18:26:04;;;;;;;13.70;8.40;;;;;;;15.08;62.16;99222.64;226425;1239;139769;-65
2022/10/23 18:31:09;;;;;;;15.50;8.70;;;;;;;15.00;62.19;99218.65;226483;1254;139660;-65
2022/10/23 18:36:19;;;;;;;19.40;8.20;;;;;;;14.91;62.30;99215.75;226578;1244;139520;-62
2022/10/23 18:41:23;;;;;;;19.20;8.90;;;;;;;14.87;62.43;99219.26;226191;1255;140212;-63
2022/10/23 18:46:26;;;;;;;25.50;9.40;;;;;;;14.84;62.56;99221.12;227394;1245;139849;-71
2022/10/23 18:51:33;;;;;;;20.60;9.60;;;;;;;14.80;62.49;99221.93;227433;1235;138827;-68
2022/10/23 18:56:40;;;;;;;23.80;9.90;;;;;;;14.71;62.56;99217.45;227348;1234;139455;-63
2022/10/23 19:01:43;;;;;;;18.70;9.60;;;;;;;14.60;62.52;99216.85;226328;1235;138917;-67
2022/10/23 19:06:48;;;;;;;19.70;10.70;;;;;;;14.49;62.54;99212.54;226371;1248;138873;-64
2022/10/23 19:11:51;;;;;;;20.00;11.50;;;;;;;14.38;62.60;99202.94;226523;1241;140248;-67
2022/10/23 19:17:00;;;;;;;21.60;11.60;;;;;;;14.29;62.68;99198.68;226502;1245;139153;-62
2022/10/23 19:22:03;;;;;;;23.20;11.20;;;;;;;14.19;62.84;99189.23;226458;1238;139691;-66
2022/10/23 19:27:07;;;;;;;17.50;11.20;;;;;;;14.14;62.90;99196.20;226402;1241;140845;-65
2022/10/23 19:32:11;;;;;;;23.80;11.80;;;;;;;14.13;62.93;99201.27;227378;1230;139979;-65
2022/10/23 19:37:14;;;;;;;24.00;13.50;;;;;;;14.10;62.99;99198.12;226639;1239;139826;-62
2022/10/23 19:42:17;;;;;;;21.20;12.70;;;;;;;14.04;63.26;99189.27;226681;1247;140904;-64
2022/10/23 19:47:20;;;;;;;20.80;12.80;;;;;;;13.96;63.16;99182.37;227265;1234;140884;-66
2022/10/23 19:52:23;;;;;;;19.90;13.30;;;;;;;13.89;63.17;99180.38;226682;1241;139105;-63
2022/10/23 19:57:29;;;;;;;23.10;14.60;;;;;;;13.83;63.27;99185.13;227414;1234;139283;-67
2022/10/23 20:02:34;;;;;;;22.80;14.30;;;;;;;13.75;63.29;99183.00;227356;1234;139382;-63
2022/10/23 20:07:46;;;;;;;21.90;14.20;;;;;;;13.76;63.57;99183.33;227352;1241;140194;-59
2022/10/23 20:12:49;;;;;;;21.30;14.20;;;;;;;13.75;63.48;99184.11;226659;1241;140779;-67
2022/10/23 20:17:59;;;;;;;30.00;18.50;;;;;;;13.72;63.69;99182.72;227502;1242;139277;-68
2022/10/23 20:23:02;;;;;;;21.20;14.40;;;;;;;13.68;63.77;99187.81;226488;1241;139222;-67
2022/10/23 20:28:05;;;;;;;25.60;14.80;;;;;;;13.60;63.74;99184.08;226574;1241;139498;-62
2022/10/23 20:33:13;;;;;;;24.70;14.30;;;;;;;13.52;63.81;99180.05;227469;1234;139349;-63
2022/10/23 20:38:16;;;;;;;24.80;14.80;;;;;;;13.45;63.95;99171.56;226620;1240;140273;-67
2022/10/23 20:43:19;;;;;;;26.80;14.80;;;;;;;13.39;63.81;99170.11;227269;1231;139771;-61
2022/10/23 20:48:22;;;;;;;23.50;13.90;;;;;;;13.35;63.69;99170.04;227467;1241;139885;-69
2022/10/23 20:53:25;;;;;;;25.80;14.90;;;;;;;13.34;63.71;99160.84;226412;1242;139949;-62
2022/10/23 20:58:28;;;;;;;22.60;13.80;;;;;;;13.30;63.72;99162.93;226598;1241;138955;-60
2022/10/23 21:03:31;;;;;;;25.70;14.80;;;;;;;13.23;63.53;99158.71;226600;1240;139878;-65
2022/10/23 21:08:36;;;;;;;21.50;15.30;;;;;;;13.16;63.48;99160.64;226525;1245;139156;-63
2022/10/23 21:13:40;;;;;;;21.20;15.30;;;;;;;13.09;63.38;99159.56;227373;1241;139207;-72
2022/10/23 21:18:43;;;;;;;25.80;15.00;;;;;;;12.99;63.43;99151.27;226748;1241;138988;-61
2022/10/23 21:23:50;;;;;;;24.80;14.60;;;;;;;12.90;63.60;99156.80;226567;1245;139217;-67
2022/10/23 21:28:54;;;;;;;24.60;16.30;;;;;;;12.82;63.55;99153.59;227270;1234;139165;-70
2022/10/23 21:34:08;;;;;;;21.50;14.70;;;;;;;12.77;63.56;99145.35;226425;1249;139952;-65
2022/10/23 21:39:12;;;;;;;22.70;15.40;;;;;;;12.78;63.76;99138.73;227473;1230;140124;-66
2022/10/23 21:44:15;;;;;;;24.30;15.70;;;;;;;12.76;63.60;99131.36;227397;1241;140081;-69
2022/10/23 21:49:19;;;;;;;22.80;15.50;;;;;;;12.73;63.51;99132.52;227294;1231;139046;-61
2022/10/23 21:54:22;;;;;;;27.00;15.50;;;;;;;12.67;63.54;99137.88;226746;1243;139433;-62
2022/10/23 21:59:26;;;;;;;22.40;15.80;;;;;;;12.58;63.45;99145.10;227451;1224;138967;-66
2022/10/23 22:04:33;;;;;;;25.70;15.70;;;;;;;12.49;63.41;99142.33;225420;1235;139587;-63
2022/10/23 22:09:36;;;;;;;23.40;16.30;;;;;;;12.40;63.68;99144.58;227264;1234;140457;-64
2022/10/23 22:14:39;;;;;;;24.10;16.10;;;;;;;12.33;63.78;99134.00;226613;1234;139446;-62
2022/10/23 22:19:42;;;;;;;20.20;14.90;;;;;;;12.29;63.76;99129.24;226578;1239;141116;-63
2022/10/23 22:24:45;;;;;;;20.40;15.50;;;;;;;12.30;63.77;99134.19;226644;1249;139936;-65
2022/10/23 22:29:48;;;;;;;19.20;14.90;;;;;;;12.28;63.95;99136.28;226527;1241;140232;-66
2022/10/23 22:34:51;;;;;;;20.90;14.50;;;;;;;12.26;64.17;99125.20;227462;1234;139184;-68
2022/10/23 22:39:55;;;;;;;25.20;15.90;;;;;;;12.26;63.97;99117.23;227364;1228;138998;-66
2022/10/23 22:44:58;;;;;;;25.50;16.20;;;;;;;12.22;64.25;99111.95;227259;1227;139973;-66
2022/10/23 22:50:01;;;;;;;28.50;17.20;;;;;;;12.19;64.01;99107.73;226430;1241;139390;-62
2022/10/23 22:55:04;;;;;;;24.10;17.30;;;;;;;12.14;64.14;99104.01;226534;1233;140086;-66
2022/10/23 23:00:08;;;;;;;26.60;16.80;;;;;;;12.07;63.70;99097.67;227453;1231;139263;-64
2022/10/23 23:05:11;;;;;;;25.70;16.50;;;;;;;12.07;64.01;99080.09;226186;1243;139643;-66
2022/10/23 23:10:14;;;;;;;25.50;16.90;;;;;;;12.06;63.88;99083.13;227393;1227;140039;-63
2022/10/23 23:15:18;;;;;;;22.00;16.00;;;;;;;12.05;64.08;99082.70;227434;1227;139474;-62